CheckWX is a tool to help pilots better visualize weather data.  It is not intended as a substitute for an official pre-flight weather briefing.

06:45:38 UTC

KMPO METAR
Pocono Mountains Municipal Airport
Mount Pocono, Pennsylvania, USA
Current

53 mins ago

KMPO 070553Z AUTO 30009G18KT 10SM SCT028 BKN034 M03/M07 A3011 RMK AO2 SLP220 T10331067 10011 21033 51011
Observed
Dec-7 @ 05:53 UTC
Wind
  • 300° at 9 KTS
  • Gusting to 18 KTS
Visibility
10 SM
Flight Rules
VFR
Cloud Levels
  • Scattered at 2,800' AGL
  • Broken at 3,400' AGL
Temperature
-3°C / 27°F
Dewpoint
-7°C / 19°F
Humidity
74%
Altimeter
30.11" Hg
Pressure
1019.62 hPa
Previous

2 hours ago

KMPO 070453Z AUTO 31015G21KT 10SM SCT023 SCT030 OVC036 M03/M06 A3010 RMK AO2 SLP214 T10281061 400171056
Observed
Dec-7 @ 04:53 UTC
Wind
  • 310° at 15 KTS
  • Gusting to 21 KTS
Visibility
10 SM
Flight Rules
VFR
Cloud Levels
  • Scattered at 2,300' AGL
  • Scattered at 3,000' AGL
  • Overcast at 3,600' AGL
Temperature
-3°C / 27°F
Dewpoint
-6°C / 21°F
Humidity
80%
Altimeter
30.1" Hg
Pressure
1019.32 hPa
Previous

2 hours ago

KMPO 070424Z AUTO 31012KT 10SM SCT021 BKN027 OVC035 M03/M05 A3009 RMK AO2 T10281050
Observed
Dec-7 @ 04:24 UTC
Wind
  • 310° at 12 KTS
Visibility
10 SM
Flight Rules
MVFR
Cloud Levels
  • Scattered at 2,100' AGL
  • Broken at 2,700' AGL
  • Overcast at 3,500' AGL
Temperature
-3°C / 27°F
Dewpoint
-5°C / 23°F
Humidity
86%
Altimeter
30.09" Hg
Pressure
1018.92 hPa